Maersk Weymouth — VRFS9 — position and weather

sailwx.info

Track history (hours):
 
Tides and Currents Weather Stations Pressure Air Temp Water Temp Dewpoint Dewpoint Depression Visibility Wind Speed Wind Dir Waves Ship Positions

Maersk Weymouth

Last reported at 2015-Feb-14 16:14 UTC. Time now 2015-Mar-06 04:02 UTC.
Position N 07°56' W 013°50'.
Warning: this ship's position is 19 days out of date.

Length 172 m; draft 9 m.

Type: Cargo ship. MMSI: 477622100.

Date/timePositionNaut miles runAvg speedWind from/ knotsBaromVisibWave heightAir tempDewpointWater temp
2015-Feb-14 16:14N 07°56' W 013°50'17 8.6
2015-Feb-14 14:13N 08°13' W 013°50'6 8.5
2015-Feb-14 13:34N 08°19' W 013°50'61 8.7
2015-Feb-14 06:33N 09°20' W 013°46'9 8.7
2015-Feb-14 05:34N 09°28' W 013°44'3 2.4
2015-Feb-14 04:31N 09°31' W 013°43'0 0.0
2015-Feb-14 03:31N 09°31' W 013°43'0 0.0
2015-Feb-14 02:31N 09°31' W 013°43'0 0.0
2015-Feb-14 01:31N 09°31' W 013°43'0 0.0
2015-Feb-14 00:31N 09°31' W 013°43'0 0.0
2015-Feb-13 23:31N 09°31' W 013°43'0 0.0
2015-Feb-13 22:31N 09°31' W 013°43'0 0.0
2015-Feb-13 21:31N 09°31' W 013°43'0 0.0
2015-Feb-13 20:31N 09°31' W 013°43'0 0.0
2015-Feb-13 19:31N 09°31' W 013°43'0 0.0
2015-Feb-13 18:31N 09°31' W 013°43'0 0.0
2015-Feb-13 17:31N 09°31' W 013°43'0 0.0
2015-Feb-13 16:31N 09°31' W 013°43'0 0.0
2015-Feb-13 15:31N 09°31' W 013°43'1 0.9
2015-Feb-13 14:33N 09°30' W 013°44'7 7.1
2015-Feb-13 13:33N 09°23' W 013°45'1313.5
2015-Feb-13 12:33N 09°20' W 013°58'17616.0
2015-Feb-13 01:33N 09°59' W 016°53'8516.8
2015-Feb-12 20:31N 11°09' W 017°41'  
2015-Feb-07 21:28N 35°59' W 005°32'9 9.5
2015-Feb-07 20:34N 36°03' W 005°23'6 6.3
2015-Feb-07 19:33N 36°09' W 005°26'0 0.0
2015-Feb-07 18:30N 36°09' W 005°26'0 0.0
2015-Feb-07 17:33N 36°09' W 005°26'0 0.0
2015-Feb-07 16:30N 36°09' W 005°26'0 0.0
2015-Feb-07 15:33N 36°09' W 005°26'0 0.0
2015-Feb-07 14:30N 36°09' W 005°26'0 0.0
2015-Feb-07 13:30N 36°09' W 005°26'0 0.0
2015-Feb-07 12:27N 36°09' W 005°26'0 0.0
2015-Feb-07 10:27N 36°09' W 005°26'0 0.0
2015-Feb-07 09:33N 36°09' W 005°26'0 0.0
2015-Feb-07 04:09N 36°09' W 005°26'0 0.0
2015-Feb-07 03:30N 36°09' W 005°26'0 0.0
2015-Feb-07 02:33N 36°09' W 005°26'0 0.0
2015-Feb-07 01:21N 36°09' W 005°26'1 0.7
2015-Feb-07 00:17N 36°10' W 005°26'0 0.0
2015-Feb-06 23:32N 36°10' W 005°26'0 0.0
2015-Feb-06 22:32N 36°10' W 005°26'0 0.0
2015-Feb-06 21:32N 36°10' W 005°26'0 0.1
2015-Feb-06 17:29N 36°10' W 005°25'6 6.8
2015-Feb-06 16:33N 36°06' W 005°19'5 1.7
2015-Feb-06 13:34N 36°05' W 005°13'1211.5
2015-Feb-06 12:33N 35°58' W 005°25'  
Track history (hours):
 
Tides and Currents Weather Stations Pressure Air Temp Water Temp Dewpoint Dewpoint Depression Visibility Wind Speed Wind Dir Waves Ship Positions

Maersk Weymouth

Last reported at 2015-Feb-14 16:14 UTC. Time now 2015-Mar-06 04:02 UTC.
Position N 07°56' W 013°50'.
Warning: this ship's position is 19 days out of date.

Length 172 m; draft 9 m.

Type: Cargo ship. MMSI: 477622100.

Date/timePositionNaut miles runAvg speedWind from/ knotsBaromVisibWave heightAir tempDewpointWater temp
2015-Feb-14 16:14N 07°56' W 013°50'17 8.6
2015-Feb-14 14:13N 08°13' W 013°50'6 8.5
2015-Feb-14 13:34N 08°19' W 013°50'61 8.7
2015-Feb-14 06:33N 09°20' W 013°46'9 8.7
2015-Feb-14 05:34N 09°28' W 013°44'3 2.4
2015-Feb-14 04:31N 09°31' W 013°43'0 0.0
2015-Feb-14 03:31N 09°31' W 013°43'0 0.0
2015-Feb-14 02:31N 09°31' W 013°43'0 0.0
2015-Feb-14 01:31N 09°31' W 013°43'0 0.0
2015-Feb-14 00:31N 09°31' W 013°43'0 0.0
2015-Feb-13 23:31N 09°31' W 013°43'0 0.0
2015-Feb-13 22:31N 09°31' W 013°43'0 0.0
2015-Feb-13 21:31N 09°31' W 013°43'0 0.0
2015-Feb-13 20:31N 09°31' W 013°43'0 0.0
2015-Feb-13 19:31N 09°31' W 013°43'0 0.0
2015-Feb-13 18:31N 09°31' W 013°43'0 0.0
2015-Feb-13 17:31N 09°31' W 013°43'0 0.0
2015-Feb-13 16:31N 09°31' W 013°43'0 0.0
2015-Feb-13 15:31N 09°31' W 013°43'1 0.9
2015-Feb-13 14:33N 09°30' W 013°44'7 7.1
2015-Feb-13 13:33N 09°23' W 013°45'1313.5
2015-Feb-13 12:33N 09°20' W 013°58'17616.0
2015-Feb-13 01:33N 09°59' W 016°53'8516.8
2015-Feb-12 20:31N 11°09' W 017°41'  
2015-Feb-07 21:28N 35°59' W 005°32'9 9.5
2015-Feb-07 20:34N 36°03' W 005°23'6 6.3
2015-Feb-07 19:33N 36°09' W 005°26'0 0.0
2015-Feb-07 18:30N 36°09' W 005°26'0 0.0
2015-Feb-07 17:33N 36°09' W 005°26'0 0.0
2015-Feb-07 16:30N 36°09' W 005°26'0 0.0
2015-Feb-07 15:33N 36°09' W 005°26'0 0.0
2015-Feb-07 14:30N 36°09' W 005°26'0 0.0
2015-Feb-07 13:30N 36°09' W 005°26'0 0.0
2015-Feb-07 12:27N 36°09' W 005°26'0 0.0
2015-Feb-07 10:27N 36°09' W 005°26'0 0.0
2015-Feb-07 09:33N 36°09' W 005°26'0 0.0
2015-Feb-07 04:09N 36°09' W 005°26'0 0.0
2015-Feb-07 03:30N 36°09' W 005°26'0 0.0
2015-Feb-07 02:33N 36°09' W 005°26'0 0.0
2015-Feb-07 01:21N 36°09' W 005°26'1 0.7
2015-Feb-07 00:17N 36°10' W 005°26'0 0.0
2015-Feb-06 23:32N 36°10' W 005°26'0 0.0
2015-Feb-06 22:32N 36°10' W 005°26'0 0.0
2015-Feb-06 21:32N 36°10' W 005°26'0 0.1
2015-Feb-06 17:29N 36°10' W 005°25'6 6.8
2015-Feb-06 16:33N 36°06' W 005°19'5 1.7
2015-Feb-06 13:34N 36°05' W 005°13'1211.5
2015-Feb-06 12:33N 35°58' W 005°25'  

Dump ship's entire track history